Ana Sayfa
METAR-TAF:

METAR-TAF

Havaalanları :

Bağdat, Irak

Bağdat Uluslararası Havaalanı

Enlem: 33-15-45N, Boylam: 44-14-04E, yükseklik: 35 m

Güncel hava durumu gözlemi

Rapor saat 16:00 UTC de 1 saat ve 0 dakika önce yapıldı.
Rüzgar kuzeybatıdan 3 kt
Sıcaklık 12°C
Nem 54%
Basınç 1015 hPa
Görüş mesafesi 10 km veya daha fazla
1500 m altında bulut yok ve kümülonimbus yok

METAR: ORBI 141600Z 31003KT CAVOK 12/03 Q1015 NOSIG

Saat: 20:00 (17:00 UTC)

Tahmin

Rapor saat 10:00 UTC de 7 saat ve 0 dakika önce yapıldı.
Ayın 14'si saat 12 UTC'den ayın 15'si saat 12 UTC'ye kadar geçerli Tahmin
Rüzgar değişken yönden 4 kt
Görüş mesafesi: 7000 m

TAF: ORBI 141000Z 1412/1512 VRB04KT 7000 NSC

4.000'den fazla havaalanı için hava durumu gözlemleri ve tahminleri (METAR ve TAF raporları).

Kullanılabilir istasyonlar harita üzerinde sarı ve kırmızı noktalarla gösterilir.

İstasyonun adını görmek için fareyi noktanın üzerinde gezdirin.

Sonrasında hava gözlem ve tahminlerini görmek için tıklayın.

Haritayı değiştirmek için: yaklaştırmak için siyah artı işaretli yeşil düğmeye ve uzaklaştırmak için de eksi işaretli düğmeye hızla tıklayın; bitişik haritalar için yeşil okları kullanın.


METAR-TAF: